Time;durP1;ratioP1;P1;durP2;ratioP2;P2;SDS_P1;SDS_P2;PMS_P1;PMS_P2;Temp;Humidity;BMP_temperature;BMP_pressure;BME280_temperature;BME280_humidity;BME280_pressure;Samples;Min_cycle;Max_cycle;Signal;HPM_P1;HPM_P2
2022/07/10 00:01:52;;;;;;;1.85;1.30;;;;;;;;;;4955673;29;20027;-69
2022/07/10 00:04:18;;;;;;;2.38;1.40;;;;;;;;;;4956213;28;20078;-69
2022/07/10 00:06:46;;;;;;;2.00;1.40;;;;;;;;;;4972537;28;20493;-68
2022/07/10 00:09:13;;;;;;;2.28;1.30;;;;;;;;;;4975331;28;20047;-71
2022/07/10 00:11:40;;;;;;;3.20;1.48;;;;;;;;;;4975295;28;20035;-68
2022/07/10 00:14:06;;;;;;;3.90;1.50;;;;;;;;;;4975415;28;20034;-67
2022/07/10 00:16:32;;;;;;;1.30;1.20;;;;;;;;;;4974481;28;20399;-67
2022/07/10 00:18:58;;;;;;;2.90;1.55;;;;;;;;;;4974969;28;20045;-68
2022/07/10 00:21:24;;;;;;;2.85;1.33;;;;;;;;;;4974786;28;20031;-69
2022/07/10 00:23:50;;;;;;;4.63;1.60;;;;;;;;;;4975030;28;20047;-69
2022/07/10 00:26:15;;;;;;;3.67;1.25;;;;;;;;;;4975144;28;20055;-71
2022/07/10 00:28:41;;;;;;;2.75;1.60;;;;;;;;;;4975172;28;20081;-70
2022/07/10 00:31:10;;;;;;;4.82;1.50;;;;;;;;;;4977767;28;20031;-69
2022/07/10 00:33:37;;;;;;;3.40;1.50;;;;;;;;;;4976297;28;20116;-68
2022/07/10 00:36:05;;;;;;;1.85;1.40;;;;;;;;;;4970217;28;20490;-68
2022/07/10 00:38:31;;;;;;;4.13;1.40;;;;;;;;;;4963642;28;20402;-69
2022/07/10 00:40:57;;;;;;;1.85;1.33;;;;;;;;;;4961009;28;20023;-70
2022/07/10 00:43:22;;;;;;;1.65;1.30;;;;;;;;;;4974421;28;20110;-69
2022/07/10 00:45:49;;;;;;;1.75;1.27;;;;;;;;;;4974846;28;20054;-69
2022/07/10 00:48:15;;;;;;;2.38;1.65;;;;;;;;;;4974685;28;20537;-69
2022/07/10 00:50:45;;;;;;;1.70;1.40;;;;;;;;;;4965842;28;20103;-72
2022/07/10 00:53:13;;;;;;;2.25;1.60;;;;;;;;;;4963813;28;20054;-69
2022/07/10 00:55:39;;;;;;;2.38;1.60;;;;;;;;;;4961859;28;20038;-68
2022/07/10 00:58:10;;;;;;;3.00;1.60;;;;;;;;;;4973460;28;20174;-70
2022/07/10 01:00:37;;;;;;;3.38;1.88;;;;;;;;;;4974519;28;20404;-73
2022/07/10 01:03:03;;;;;;;4.88;1.80;;;;;;;;;;4974505;28;20090;-72
2022/07/10 01:05:29;;;;;;;3.08;1.95;;;;;;;;;;4973516;28;20054;-74
2022/07/10 01:07:55;;;;;;;13.60;2.60;;;;;;;;;;4973182;28;20061;-72
2022/07/10 01:10:21;;;;;;;5.10;1.98;;;;;;;;;;4974180;28;20030;-71
2022/07/10 01:12:48;;;;;;;6.07;2.25;;;;;;;;;;4968036;28;20043;-73
2022/07/10 01:15:14;;;;;;;2.10;1.60;;;;;;;;;;4968793;28;20046;-71
2022/07/10 01:17:39;;;;;;;4.28;1.70;;;;;;;;;;4973450;28;20018;-73
2022/07/10 01:20:07;;;;;;;4.38;1.73;;;;;;;;;;4974189;28;20034;-70
2022/07/10 01:22:33;;;;;;;5.53;1.90;;;;;;;;;;4978987;28;20030;-73
2022/07/10 01:24:59;;;;;;;2.72;1.60;;;;;;;;;;4991202;28;20038;-70
2022/07/10 01:27:25;;;;;;;2.53;1.70;;;;;;;;;;4991690;28;20029;-70
2022/07/10 01:29:53;;;;;;;3.30;1.88;;;;;;;;;;4992960;28;20050;-70
2022/07/10 01:32:18;;;;;;;3.45;1.63;;;;;;;;;;4961365;28;20023;-73
2022/07/10 01:34:45;;;;;;;5.55;2.00;;;;;;;;;;4954072;28;20513;-74
2022/07/10 01:37:11;;;;;;;3.47;1.92;;;;;;;;;;4954614;28;20423;-73
2022/07/10 01:39:36;;;;;;;4.80;2.15;;;;;;;;;;4954262;28;20119;-71
2022/07/10 01:42:02;;;;;;;5.95;2.33;;;;;;;;;;4954277;28;20031;-72
2022/07/10 01:44:28;;;;;;;5.35;2.17;;;;;;;;;;4953664;28;20110;-71
2022/07/10 01:46:54;;;;;;;3.15;1.80;;;;;;;;;;4953491;28;20106;-69
2022/07/10 01:49:20;;;;;;;3.13;1.95;;;;;;;;;;4954800;28;20443;-69
2022/07/10 01:51:46;;;;;;;2.17;1.77;;;;;;;;;;4955276;28;20133;-75
2022/07/10 01:54:11;;;;;;;5.97;2.15;;;;;;;;;;4953845;28;20479;-72
2022/07/10 01:56:38;;;;;;;2.92;1.80;;;;;;;;;;4953951;28;20039;-69
2022/07/10 01:59:04;;;;;;;3.53;2.10;;;;;;;;;;4953917;28;20548;-70
2022/07/10 02:01:31;;;;;;;7.60;2.00;;;;;;;;;;4953873;28;20037;-70
2022/07/10 02:06:41;;;;;;;7.57;2.28;;;;;;;;;;4954229;28;20038;-73
2022/07/10 02:09:07;;;;;;;3.53;1.92;;;;;;;;;;4954084;28;20027;-71
2022/07/10 02:11:33;;;;;;;7.00;2.67;;;;;;;;;;4953908;28;20097;-70
2022/07/10 02:13:59;;;;;;;7.13;2.40;;;;;;;;;;4953704;28;20026;-69
2022/07/10 02:16:24;;;;;;;3.60;1.90;;;;;;;;;;4953565;28;20035;-69
2022/07/10 02:18:50;;;;;;;5.50;2.05;;;;;;;;;;4954004;28;20023;-68
2022/07/10 02:21:16;;;;;;;3.10;2.00;;;;;;;;;;4953903;28;20094;-74
2022/07/10 02:23:42;;;;;;;4.88;2.03;;;;;;;;;;4953610;28;20038;-70
2022/07/10 02:26:08;;;;;;;5.45;2.10;;;;;;;;;;4953643;28;20043;-70
2022/07/10 02:28:34;;;;;;;3.13;2.13;;;;;;;;;;4953637;28;20410;-69
2022/07/10 02:31:00;;;;;;;6.43;2.15;;;;;;;;;;4953902;28;20102;-74
2022/07/10 02:33:25;;;;;;;4.53;2.50;;;;;;;;;;4953680;28;20039;-70
2022/07/10 02:35:51;;;;;;;13.75;2.53;;;;;;;;;;4953969;28;20050;-70
2022/07/10 02:38:17;;;;;;;7.05;2.20;;;;;;;;;;4953870;28;20054;-69
2022/07/10 02:40:43;;;;;;;4.15;2.35;;;;;;;;;;4953715;29;20061;-67
2022/07/10 02:43:09;;;;;;;4.15;2.45;;;;;;;;;;4953405;28;20031;-70
2022/07/10 02:45:35;;;;;;;4.18;2.13;;;;;;;;;;4953173;28;20043;-72
2022/07/10 02:48:00;;;;;;;8.68;2.70;;;;;;;;;;4953495;28;20031;-69
2022/07/10 02:50:26;;;;;;;6.85;2.17;;;;;;;;;;4953651;28;20027;-70
2022/07/10 02:52:52;;;;;;;2.72;1.80;;;;;;;;;;4963826;28;20035;-71
2022/07/10 02:55:19;;;;;;;7.03;2.50;;;;;;;;;;4972311;28;20053;-71
2022/07/10 02:57:44;;;;;;;3.92;2.05;;;;;;;;;;4972366;28;20047;-71
2022/07/10 03:00:11;;;;;;;3.90;2.00;;;;;;;;;;4972688;28;20034;-69
2022/07/10 03:02:37;;;;;;;3.65;2.03;;;;;;;;;;4972595;28;20041;-71
2022/07/10 03:05:03;;;;;;;6.72;2.80;;;;;;;;;;4972480;28;20050;-69
2022/07/10 03:07:37;;;;;;;2.92;2.20;;;;;;;;;;4972586;28;20466;-72
2022/07/10 03:10:04;;;;;;;4.00;2.35;;;;;;;;;;4968934;28;20159;-72
2022/07/10 03:12:30;;;;;;;5.97;2.40;;;;;;;;;;4972252;28;20034;-70
2022/07/10 03:14:56;;;;;;;4.13;2.08;;;;;;;;;;4972516;28;20105;-71
2022/07/10 03:17:22;;;;;;;2.92;2.28;;;;;;;;;;4972146;28;20122;-69
2022/07/10 03:19:48;;;;;;;4.80;2.78;;;;;;;;;;4972647;28;20039;-70
2022/07/10 03:22:13;;;;;;;5.65;2.13;;;;;;;;;;4972555;28;20104;-70
2022/07/10 03:24:39;;;;;;;4.30;2.28;;;;;;;;;;4972736;28;20047;-68
2022/07/10 03:27:05;;;;;;;4.18;2.78;;;;;;;;;;4972924;28;20474;-69
2022/07/10 03:29:32;;;;;;;3.15;2.20;;;;;;;;;;4976049;28;20026;-69
2022/07/10 03:31:57;;;;;;;7.20;2.22;;;;;;;;;;4976160;28;20031;-70
2022/07/10 03:34:23;;;;;;;3.85;2.90;;;;;;;;;;4976292;28;20067;-70
2022/07/10 03:36:49;;;;;;;6.32;2.28;;;;;;;;;;4973698;28;20062;-68
2022/07/10 03:39:15;;;;;;;3.33;2.33;;;;;;;;;;4975246;28;20387;-69
2022/07/10 03:41:41;;;;;;;5.15;2.65;;;;;;;;;;4975987;28;20041;-69
2022/07/10 03:44:07;;;;;;;6.80;2.65;;;;;;;;;;4975927;28;20478;-69
2022/07/10 03:46:32;;;;;;;5.30;2.55;;;;;;;;;;4975871;28;20037;-69
2022/07/10 03:48:58;;;;;;;2.72;2.08;;;;;;;;;;4976017;28;20080;-70
2022/07/10 03:51:24;;;;;;;5.03;2.00;;;;;;;;;;4975877;28;20138;-69
2022/07/10 03:53:50;;;;;;;7.25;2.50;;;;;;;;;;4974569;28;20050;-70
2022/07/10 03:59:01;;;;;;;3.50;2.08;;;;;;;;;;4974330;28;20043;-69
2022/07/10 04:01:27;;;;;;;7.55;2.08;;;;;;;;;;4975636;28;20031;-69
2022/07/10 04:03:53;;;;;;;5.78;2.10;;;;;;;;;;4975588;28;20161;-69
2022/07/10 04:06:19;;;;;;;5.95;2.08;;;;;;;;;;4974658;28;20331;-68
2022/07/10 04:08:45;;;;;;;7.50;2.40;;;;;;;;;;4975769;28;20038;-70
2022/07/10 04:11:10;;;;;;;2.92;1.98;;;;;;;;;;4975421;28;20026;-69
2022/07/10 04:13:36;;;;;;;2.83;2.10;;;;;;;;;;4975168;28;20049;-71
2022/07/10 04:16:03;;;;;;;4.20;2.22;;;;;;;;;;4975399;28;20049;-70
2022/07/10 04:18:29;;;;;;;3.33;1.60;;;;;;;;;;4975473;28;20501;-69
2022/07/10 04:20:54;;;;;;;5.40;2.55;;;;;;;;;;4974751;28;20035;-69
2022/07/10 04:23:20;;;;;;;5.75;2.05;;;;;;;;;;4960864;28;20043;-70
2022/07/10 04:25:46;;;;;;;5.18;2.33;;;;;;;;;;4955564;28;20078;-70
2022/07/10 04:28:12;;;;;;;5.05;2.63;;;;;;;;;;4957947;28;20074;-73
2022/07/10 04:30:38;;;;;;;7.88;2.50;;;;;;;;;;4954473;29;20035;-71
2022/07/10 04:33:04;;;;;;;4.63;2.50;;;;;;;;;;4961189;28;20126;-75
2022/07/10 04:35:29;;;;;;;6.82;2.15;;;;;;;;;;4974968;28;20058;-75
2022/07/10 04:37:55;;;;;;;8.30;2.20;;;;;;;;;;4974681;28;20038;-75
2022/07/10 04:40:21;;;;;;;4.32;2.00;;;;;;;;;;4972959;28;20130;-73
2022/07/10 04:42:47;;;;;;;6.47;2.60;;;;;;;;;;4974356;28;20030;-71
2022/07/10 04:45:12;;;;;;;7.00;2.30;;;;;;;;;;4974320;28;20102;-71
2022/07/10 04:47:38;;;;;;;6.65;2.25;;;;;;;;;;4975062;28;20038;-70
2022/07/10 04:50:04;;;;;;;8.35;2.40;;;;;;;;;;4975367;28;20026;-73
2022/07/10 04:52:30;;;;;;;6.32;2.47;;;;;;;;;;4975214;28;20046;-74
2022/07/10 04:54:56;;;;;;;6.68;2.63;;;;;;;;;;4975440;28;20027;-76
2022/07/10 04:57:22;;;;;;;5.15;2.45;;;;;;;;;;4975547;28;20055;-73
2022/07/10 04:59:48;;;;;;;5.90;2.13;;;;;;;;;;4975404;28;20038;-71
2022/07/10 05:02:14;;;;;;;4.18;2.03;;;;;;;;;;4975214;28;20042;-71
2022/07/10 05:04:40;;;;;;;5.68;2.30;;;;;;;;;;4975030;28;20049;-74
2022/07/10 05:07:05;;;;;;;3.90;2.50;;;;;;;;;;4974488;28;20027;-71
2022/07/10 05:09:31;;;;;;;7.00;2.60;;;;;;;;;;4975372;28;20075;-72
2022/07/10 05:11:57;;;;;;;4.85;2.20;;;;;;;;;;4975261;28;20037;-71
2022/07/10 05:14:25;;;;;;;7.70;2.20;;;;;;;;;;4974685;28;20097;-75
2022/07/10 05:16:51;;;;;;;3.63;2.50;;;;;;;;;;4974774;28;20056;-73
2022/07/10 05:19:17;;;;;;;5.63;2.65;;;;;;;;;;4974797;28;20027;-73
2022/07/10 05:21:43;;;;;;;4.90;2.90;;;;;;;;;;4974986;28;20430;-73
2022/07/10 05:24:08;;;;;;;9.30;3.05;;;;;;;;;;4974722;28;20026;-73
2022/07/10 05:26:36;;;;;;;4.28;3.00;;;;;;;;;;4974498;28;20042;-73
2022/07/10 05:29:01;;;;;;;3.58;2.95;;;;;;;;;;4974933;28;20015;-70
2022/07/10 05:31:27;;;;;;;3.45;2.90;;;;;;;;;;4974971;28;20034;-72
2022/07/10 05:33:53;;;;;;;7.35;2.80;;;;;;;;;;4974773;28;20113;-71
2022/07/10 05:36:19;;;;;;;5.03;3.15;;;;;;;;;;4974984;28;20493;-73
2022/07/10 05:38:45;;;;;;;6.90;3.00;;;;;;;;;;4974422;28;20419;-69
2022/07/10 05:41:11;;;;;;;6.15;3.00;;;;;;;;;;4974039;28;20046;-73
2022/07/10 05:43:36;;;;;;;5.55;2.80;;;;;;;;;;4974101;28;20065;-74
2022/07/10 05:46:02;;;;;;;7.72;2.92;;;;;;;;;;4973884;28;20381;-71
2022/07/10 05:48:28;;;;;;;4.45;3.00;;;;;;;;;;4974309;28;20031;-72
2022/07/10 05:50:54;;;;;;;4.25;3.17;;;;;;;;;;4974147;28;20133;-72
2022/07/10 05:53:20;;;;;;;3.63;3.30;;;;;;;;;;4974527;28;20102;-73
2022/07/10 05:55:49;;;;;;;7.00;3.22;;;;;;;;;;4974124;28;20097;-72
2022/07/10 05:58:16;;;;;;;6.70;2.95;;;;;;;;;;4988049;28;20038;-68
2022/07/10 06:00:45;;;;;;;4.20;3.15;;;;;;;;;;4993502;28;20420;-71
2022/07/10 06:03:11;;;;;;;4.47;2.92;;;;;;;;;;4993235;28;20507;-72
2022/07/10 06:05:38;;;;;;;6.63;2.97;;;;;;;;;;4992851;28;20485;-67
2022/07/10 06:08:04;;;;;;;5.03;3.08;;;;;;;;;;4973135;28;20027;-67
2022/07/10 06:10:30;;;;;;;3.92;3.00;;;;;;;;;;4954475;28;20031;-68
2022/07/10 06:12:56;;;;;;;3.83;3.47;;;;;;;;;;4967812;28;20113;-69
2022/07/10 06:15:21;;;;;;;5.97;3.53;;;;;;;;;;4973918;28;20041;-69
2022/07/10 06:17:47;;;;;;;5.95;3.20;;;;;;;;;;4967185;28;20351;-68
2022/07/10 06:20:13;;;;;;;8.57;3.70;;;;;;;;;;4973478;28;20035;-71
2022/07/10 06:22:40;;;;;;;6.28;3.78;;;;;;;;;;4973985;28;20110;-69
2022/07/10 06:25:07;;;;;;;4.82;3.20;;;;;;;;;;4973193;28;20042;-69
2022/07/10 06:27:34;;;;;;;9.73;3.08;;;;;;;;;;4973226;28;20030;-69
2022/07/10 06:30:00;;;;;;;6.05;3.50;;;;;;;;;;4973324;28;20042;-69
2022/07/10 06:32:26;;;;;;;5.13;3.30;;;;;;;;;;4954222;28;20028;-70
2022/07/10 06:34:53;;;;;;;3.58;2.78;;;;;;;;;;4958234;28;20039;-68
2022/07/10 06:37:20;;;;;;;4.43;3.13;;;;;;;;;;4954132;28;20035;-69
2022/07/10 06:39:47;;;;;;;5.40;3.25;;;;;;;;;;4954240;28;20035;-75
2022/07/10 06:42:13;;;;;;;6.13;2.95;;;;;;;;;;4962019;28;20393;-72
2022/07/10 06:44:44;;;;;;;5.63;3.42;;;;;;;;;;4968615;28;20035;-72
2022/07/10 06:49:56;;;;;;;8.27;3.13;;;;;;;;;;4973092;28;20030;-74
2022/07/10 06:52:23;;;;;;;8.45;3.20;;;;;;;;;;4973087;28;20054;-70
2022/07/10 06:54:49;;;;;;;6.28;2.90;;;;;;;;;;4972925;28;20034;-71
2022/07/10 06:57:15;;;;;;;6.50;3.00;;;;;;;;;;4972479;28;20401;-72
2022/07/10 06:59:41;;;;;;;8.48;3.13;;;;;;;;;;4956692;28;20035;-73
2022/07/10 07:02:07;;;;;;;4.80;3.47;;;;;;;;;;4955716;28;20091;-72
2022/07/10 07:04:33;;;;;;;8.80;4.70;;;;;;;;;;4957332;28;20088;-71
2022/07/10 07:06:59;;;;;;;4.43;2.90;;;;;;;;;;4956600;28;20423;-73
2022/07/10 07:09:24;;;;;;;7.25;3.15;;;;;;;;;;4957068;28;20390;-72
2022/07/10 07:11:50;;;;;;;5.93;3.00;;;;;;;;;;4968555;28;20031;-72
2022/07/10 07:14:17;;;;;;;4.05;3.03;;;;;;;;;;4976498;28;20126;-72
2022/07/10 07:16:44;;;;;;;4.28;3.00;;;;;;;;;;4976637;28;20030;-72
2022/07/10 07:19:11;;;;;;;4.55;3.10;;;;;;;;;;4976857;28;20125;-71
2022/07/10 07:24:22;;;;;;;4.88;3.03;;;;;;;;;;4976079;28;20224;-72
2022/07/10 07:26:48;;;;;;;3.58;3.10;;;;;;;;;;4976589;28;20422;-73
2022/07/10 07:29:18;;;;;;;2.67;2.30;;;;;;;;;;4976371;28;20031;-70
2022/07/10 07:31:44;;;;;;;4.15;2.70;;;;;;;;;;4975977;28;20088;-73
2022/07/10 07:34:11;;;;;;;7.72;2.88;;;;;;;;;;4975791;28;20049;-73
2022/07/10 07:36:37;;;;;;;7.13;3.33;;;;;;;;;;4968610;28;20034;-74
2022/07/10 07:39:04;;;;;;;3.20;2.50;;;;;;;;;;4965994;28;20043;-73
2022/07/10 07:41:30;;;;;;;6.63;2.75;;;;;;;;;;4957734;28;20027;-72
2022/07/10 07:43:56;;;;;;;4.35;2.80;;;;;;;;;;4956585;29;20069;-78
2022/07/10 07:46:21;;;;;;;6.00;2.92;;;;;;;;;;4956685;29;20367;-75
2022/07/10 07:48:47;;;;;;;4.93;2.50;;;;;;;;;;4969113;28;21745;-76
2022/07/10 07:51:13;;;;;;;5.00;2.63;;;;;;;;;;4956362;28;20420;-74
2022/07/10 07:53:39;;;;;;;4.60;2.75;;;;;;;;;;4957036;28;20031;-75
2022/07/10 07:56:06;;;;;;;3.30;2.15;;;;;;;;;;4970120;28;20155;-76
2022/07/10 07:58:32;;;;;;;2.92;2.20;;;;;;;;;;4976189;28;20114;-78
2022/07/10 08:00:58;;;;;;;4.00;2.50;;;;;;;;;;4976085;28;20102;-77
2022/07/10 08:03:24;;;;;;;2.63;2.38;;;;;;;;;;4975217;28;20394;-77
2022/07/10 08:05:50;;;;;;;4.13;2.90;;;;;;;;;;4975939;28;20023;-78
2022/07/10 08:08:16;;;;;;;4.10;2.60;;;;;;;;;;4976339;28;20049;-76
2022/07/10 08:10:41;;;;;;;4.30;2.58;;;;;;;;;;4975660;28;20041;-75
2022/07/10 08:13:07;;;;;;;3.58;2.67;;;;;;;;;;4974932;28;20043;-72
2022/07/10 08:15:34;;;;;;;7.28;2.60;;;;;;;;;;4974627;28;20065;-73
2022/07/10 08:18:03;;;;;;;4.13;2.08;;;;;;;;;;4975573;28;20035;-72
2022/07/10 08:20:30;;;;;;;3.35;2.60;;;;;;;;;;4975452;28;20054;-72
2022/07/10 08:22:57;;;;;;;4.20;2.53;;;;;;;;;;4975169;28;20089;-73
2022/07/10 08:25:23;;;;;;;4.63;2.35;;;;;;;;;;4975712;28;20030;-72
2022/07/10 08:27:49;;;;;;;5.10;2.55;;;;;;;;;;4974832;28;20434;-73
2022/07/10 08:30:15;;;;;;;6.00;2.05;;;;;;;;;;4975273;28;20050;-72
2022/07/10 08:32:41;;;;;;;8.95;2.35;;;;;;;;;;4974941;28;20425;-73
2022/07/10 08:35:08;;;;;;;5.80;2.55;;;;;;;;;;4974394;28;20037;-75
2022/07/10 08:37:42;;;;;;;9.93;2.40;;;;;;;;;;4974420;28;20045;-72
2022/07/10 08:40:15;;;;;;;4.90;2.60;;;;;;;;;;4974355;28;20031;-72
2022/07/10 08:42:41;;;;;;;;;;;;;;;;;;4975390;28;20042;-72
2022/07/10 08:45:07;;;;;;;3.70;2.47;;;;;;;;;;4973076;28;20288;-72
2022/07/10 08:47:38;;;;;;;4.45;2.35;;;;;;;;;;4974144;28;20039;-73
2022/07/10 08:50:05;;;;;;;2.95;2.28;;;;;;;;;;4974886;28;20105;-73
2022/07/10 08:52:41;;;;;;;3.05;2.30;;;;;;;;;;4969732;28;20466;-74
2022/07/10 08:55:07;;;;;;;3.78;2.70;;;;;;;;;;4955420;28;20043;-74
2022/07/10 08:57:34;;;;;;;3.92;2.20;;;;;;;;;;4954964;28;20044;-74
2022/07/10 09:00:00;;;;;;;2.53;2.20;;;;;;;;;;4955576;28;20472;-73
2022/07/10 09:02:26;;;;;;;3.60;2.30;;;;;;;;;;4955518;28;20023;-72
2022/07/10 09:04:52;;;;;;;3.22;2.20;;;;;;;;;;4955995;28;20039;-71
2022/07/10 09:07:18;;;;;;;4.18;2.40;;;;;;;;;;4974354;28;20425;-72
2022/07/10 09:09:55;;;;;;;3.55;2.45;;;;;;;;;;4971689;28;20057;-74
2022/07/10 09:12:25;;;;;;;6.18;2.40;;;;;;;;;;4968467;28;20031;-74
2022/07/10 09:14:51;;;;;;;3.53;2.40;;;;;;;;;;4974325;28;20058;-72
2022/07/10 09:17:18;;;;;;;4.07;2.30;;;;;;;;;;4968288;28;20035;-71
2022/07/10 09:19:44;;;;;;;5.53;2.65;;;;;;;;;;4973818;28;20018;-72
2022/07/10 09:22:12;;;;;;;3.38;2.42;;;;;;;;;;4974118;28;20039;-72
2022/07/10 09:24:40;;;;;;;11.38;4.60;;;;;;;;;;4968607;28;20035;-71
2022/07/10 09:27:07;;;;;;;4.13;2.95;;;;;;;;;;4954857;28;20035;-72
2022/07/10 09:29:45;;;;;;;7.57;3.22;;;;;;;;;;4955245;28;20039;-72
2022/07/10 09:32:12;;;;;;;6.18;3.50;;;;;;;;;;4971532;28;20065;-72
2022/07/10 09:34:46;;;;;;;4.25;2.97;;;;;;;;;;4960080;28;20063;-73
2022/07/10 09:37:28;;;;;;;4.53;3.38;;;;;;;;;;4974005;28;20067;-74
2022/07/10 09:40:03;;;;;;;3.03;2.73;;;;;;;;;;4972522;28;20035;-73
2022/07/10 09:42:37;;;;;;;6.53;3.00;;;;;;;;;;4973747;28;20371;-72
2022/07/10 09:45:18;;;;;;;3.85;2.70;;;;;;;;;;4964618;28;20562;-72
2022/07/10 09:47:45;;;;;;;3.22;2.50;;;;;;;;;;4970636;28;20029;-71
2022/07/10 09:50:26;;;;;;;3.70;2.63;;;;;;;;;;4973577;28;20023;-73
2022/07/10 09:52:54;;;;;;;4.03;2.63;;;;;;;;;;4973557;28;20042;-71
2022/07/10 09:55:22;;;;;;;3.10;2.80;;;;;;;;;;4974022;28;20386;-72
2022/07/10 09:58:08;;;;;;;3.97;3.20;;;;;;;;;;4973346;28;20046;-70
2022/07/10 10:00:39;;;;;;;5.55;3.22;;;;;;;;;;4973755;28;20031;-72
2022/07/10 10:03:08;;;;;;;4.78;3.28;;;;;;;;;;4972238;28;20030;-73
2022/07/10 10:05:51;;;;;;;5.07;2.83;;;;;;;;;;4982625;28;20019;-71
2022/07/10 10:08:22;;;;;;;8.45;4.00;;;;;;;;;;4969519;28;20433;-72
2022/07/10 10:10:50;;;;;;;5.05;3.30;;;;;;;;;;4972943;28;20039;-71
2022/07/10 10:13:30;;;;;;;4.63;3.40;;;;;;;;;;4970892;28;20042;-73
2022/07/10 10:15:57;;;;;;;3.92;3.40;;;;;;;;;;4973776;28;20035;-73
2022/07/10 10:18:24;;;;;;;3.63;3.08;;;;;;;;;;4973341;28;20027;-71
2022/07/10 10:20:52;;;;;;;4.07;3.17;;;;;;;;;;4972944;28;20030;-71
2022/07/10 10:23:20;;;;;;;4.68;3.30;;;;;;;;;;4954412;28;20049;-71
2022/07/10 10:25:48;;;;;;;5.05;3.25;;;;;;;;;;4953206;29;20510;-71
2022/07/10 10:28:15;;;;;;;4.18;2.97;;;;;;;;;;4954489;29;20027;-71
2022/07/10 10:30:46;;;;;;;3.60;3.08;;;;;;;;;;4954408;28;20560;-72
2022/07/10 10:33:36;;;;;;;4.88;3.20;;;;;;;;;;4954052;29;20055;-72
2022/07/10 10:36:04;;;;;;;4.20;2.95;;;;;;;;;;4947980;28;20553;-74
2022/07/10 10:38:47;;;;;;;3.10;2.80;;;;;;;;;;4961048;28;20418;-73
2022/07/10 10:41:36;;;;;;;5.00;3.13;;;;;;;;;;4960549;28;20031;-72
2022/07/10 10:44:13;;;;;;;4.10;2.88;;;;;;;;;;4960643;29;20039;-73
2022/07/10 10:47:05;;;;;;;5.60;2.78;;;;;;;;;;4965042;28;20047;-70
2022/07/10 10:49:56;;;;;;;8.43;3.50;;;;;;;;;;4975351;28;20030;-73
2022/07/10 10:52:24;;;;;;;4.88;3.55;;;;;;;;;;4978745;28;20050;-72
2022/07/10 10:54:56;;;;;;;5.93;3.80;;;;;;;;;;4979326;28;20046;-73
2022/07/10 10:57:23;;;;;;;5.27;3.93;;;;;;;;;;4971080;28;20047;-73
2022/07/10 10:59:54;;;;;;;4.57;3.75;;;;;;;;;;4960095;28;20281;-74
2022/07/10 11:02:28;;;;;;;4.75;3.38;;;;;;;;;;4960469;28;20031;-74
2022/07/10 11:05:18;;;;;;;3.45;2.97;;;;;;;;;;4960495;28;20081;-73
2022/07/10 11:08:01;;;;;;;3.63;3.00;;;;;;;;;;4959562;28;20031;-72
2022/07/10 11:10:35;;;;;;;5.38;2.97;;;;;;;;;;4986541;28;20454;-72
2022/07/10 11:13:09;;;;;;;5.75;3.15;;;;;;;;;;4971139;28;20070;-72
2022/07/10 11:15:39;;;;;;;3.28;2.80;;;;;;;;;;4976384;28;20057;-72
2022/07/10 11:18:09;;;;;;;4.57;2.92;;;;;;;;;;4966551;28;20034;-72
2022/07/10 11:20:44;;;;;;;6.68;3.10;;;;;;;;;;4976129;28;20042;-75
2022/07/10 11:23:25;;;;;;;8.00;3.28;;;;;;;;;;4973530;28;20085;-74
2022/07/10 11:26:07;;;;;;;3.28;2.72;;;;;;;;;;4975583;28;20041;-73
2022/07/10 11:28:50;;;;;;;5.25;2.70;;;;;;;;;;4961936;28;20046;-72
2022/07/10 11:31:18;;;;;;;5.57;2.60;;;;;;;;;;4979939;28;20057;-74
2022/07/10 11:33:46;;;;;;;9.68;2.75;;;;;;;;;;4975086;28;20031;-73
2022/07/10 11:36:17;;;;;;;4.68;2.63;;;;;;;;;;4972725;28;20039;-72
2022/07/10 11:38:44;;;;;;;5.72;2.67;;;;;;;;;;4961634;28;20046;-73
2022/07/10 11:41:18;;;;;;;4.13;2.60;;;;;;;;;;4960295;28;20118;-72
2022/07/10 11:43:47;;;;;;;6.47;3.08;;;;;;;;;;4970312;28;20154;-73
2022/07/10 11:46:14;;;;;;;7.00;2.92;;;;;;;;;;4973622;28;20027;-72
2022/07/10 11:48:40;;;;;;;8.85;2.90;;;;;;;;;;4978417;28;20024;-72
2022/07/10 11:51:41;;;;;;;5.03;3.38;;;;;;;;;;4974610;28;20470;-73
2022/07/10 11:54:12;;;;;;;3.75;2.78;;;;;;;;;;4966940;28;20141;-71
2022/07/10 11:56:43;;;;;;;4.85;3.10;;;;;;;;;;4975105;28;20526;-72
2022/07/10 11:59:11;;;;;;;4.15;3.10;;;;;;;;;;4962196;28;20509;-72
2022/07/10 12:01:48;;;;;;;5.03;3.15;;;;;;;;;;4976260;28;20042;-72
2022/07/10 12:04:16;;;;;;;4.63;3.05;;;;;;;;;;4976369;28;20037;-72
2022/07/10 12:06:44;;;;;;;4.05;3.10;;;;;;;;;;4976304;28;20039;-73
2022/07/10 12:09:12;;;;;;;5.20;3.15;;;;;;;;;;4976172;28;20035;-72
2022/07/10 12:11:40;;;;;;;3.40;2.70;;;;;;;;;;4971682;28;20102;-72
2022/07/10 12:14:18;;;;;;;4.47;2.78;;;;;;;;;;4955297;28;20046;-71
2022/07/10 12:16:46;;;;;;;3.60;2.92;;;;;;;;;;4958911;28;20074;-73
2022/07/10 12:19:14;;;;;;;4.03;2.90;;;;;;;;;;4965160;28;20121;-71
2022/07/10 12:21:42;;;;;;;9.40;2.97;;;;;;;;;;4956469;29;20035;-70
2022/07/10 12:24:08;;;;;;;5.28;3.13;;;;;;;;;;4971371;28;20030;-69
2022/07/10 12:26:36;;;;;;;7.75;2.83;;;;;;;;;;4972148;28;20500;-66
2022/07/10 12:29:03;;;;;;;5.45;3.13;;;;;;;;;;4975524;28;20481;-70
2022/07/10 12:31:34;;;;;;;7.18;3.83;;;;;;;;;;4975390;28;20042;-66
2022/07/10 12:34:02;;;;;;;7.20;6.03;;;;;;;;;;4975194;28;20050;-65
2022/07/10 12:37:07;;;;;;;5.38;4.43;;;;;;;;;;4968939;28;20031;-68
2022/07/10 12:39:37;;;;;;;5.68;2.90;;;;;;;;;;4910591;29;20047;-69
2022/07/10 12:42:06;;;;;;;4.50;2.55;;;;;;;;;;4954919;28;20528;-69
2022/07/10 12:44:35;;;;;;;6.32;3.95;;;;;;;;;;4965831;28;20034;-67
2022/07/10 12:47:02;;;;;;;5.68;4.03;;;;;;;;;;4969520;28;20082;-68
2022/07/10 12:49:28;;;;;;;5.30;2.67;;;;;;;;;;4968536;28;20045;-70
2022/07/10 12:51:55;;;;;;;5.38;3.60;;;;;;;;;;4973796;28;20035;-68
2022/07/10 12:54:34;;;;;;;3.88;2.78;;;;;;;;;;4969970;28;20097;-68
2022/07/10 12:57:00;;;;;;;4.60;3.05;;;;;;;;;;4956865;28;20129;-67
2022/07/10 12:59:27;;;;;;;4.88;2.80;;;;;;;;;;4965519;28;20035;-67
2022/07/10 13:01:55;;;;;;;7.95;3.08;;;;;;;;;;4958630;28;20050;-69
2022/07/10 13:04:26;;;;;;;5.65;4.88;;;;;;;;;;4977077;28;20043;-70
2022/07/10 13:06:54;;;;;;;6.97;5.57;;;;;;;;;;4995029;28;20033;-69
2022/07/10 13:09:21;;;;;;;3.58;3.28;;;;;;;;;;4979618;28;20050;-69
2022/07/10 13:11:49;;;;;;;4.82;3.35;;;;;;;;;;4974714;28;20070;-70
2022/07/10 13:14:15;;;;;;;4.72;3.47;;;;;;;;;;4957304;28;20101;-68
2022/07/10 13:16:41;;;;;;;4.20;3.30;;;;;;;;;;4975051;28;20042;-68
2022/07/10 13:19:07;;;;;;;5.45;3.40;;;;;;;;;;4973483;28;20078;-68
2022/07/10 13:21:34;;;;;;;6.25;3.70;;;;;;;;;;4972885;28;20038;-66
2022/07/10 13:24:00;;;;;;;3.45;2.97;;;;;;;;;;4974577;28;20389;-72
2022/07/10 13:26:26;;;;;;;7.20;4.85;;;;;;;;;;4974708;28;20034;-67
2022/07/10 13:28:52;;;;;;;4.38;3.45;;;;;;;;;;4974808;28;20104;-68
2022/07/10 13:31:18;;;;;;;5.65;3.40;;;;;;;;;;4973410;28;20148;-68
2022/07/10 13:33:43;;;;;;;4.57;4.18;;;;;;;;;;4972280;28;20054;-69
2022/07/10 13:36:09;;;;;;;4.88;3.38;;;;;;;;;;4973007;28;20471;-67
2022/07/10 13:38:35;;;;;;;4.10;3.45;;;;;;;;;;4987064;28;20152;-67
2022/07/10 13:41:04;;;;;;;5.35;3.60;;;;;;;;;;4993928;28;20545;-66
2022/07/10 13:43:30;;;;;;;7.35;3.92;;;;;;;;;;4994293;28;20031;-67
2022/07/10 13:45:57;;;;;;;5.55;3.90;;;;;;;;;;4997794;28;20035;-67
2022/07/10 13:48:24;;;;;;;4.43;3.70;;;;;;;;;;4994286;28;20033;-68
2022/07/10 13:50:50;;;;;;;5.32;3.95;;;;;;;;;;4962807;28;20054;-66
2022/07/10 13:53:16;;;;;;;5.53;3.75;;;;;;;;;;4972720;28;20034;-66
2022/07/10 13:55:44;;;;;;;5.72;3.90;;;;;;;;;;4972945;28;20031;-65
2022/07/10 13:58:10;;;;;;;4.88;4.00;;;;;;;;;;4972777;28;20039;-65
2022/07/10 14:00:37;;;;;;;5.47;3.92;;;;;;;;;;4974110;28;20106;-67
2022/07/10 14:03:04;;;;;;;6.15;3.75;;;;;;;;;;4973446;28;20489;-67
2022/07/10 14:05:30;;;;;;;4.80;3.63;;;;;;;;;;4974093;28;20041;-66
2022/07/10 14:07:56;;;;;;;7.63;3.80;;;;;;;;;;4974061;28;20031;-66
2022/07/10 14:10:22;;;;;;;3.58;3.28;;;;;;;;;;4974263;28;20039;-67
2022/07/10 14:12:48;;;;;;;6.40;4.10;;;;;;;;;;4973897;28;20050;-69
2022/07/10 14:15:14;;;;;;;6.45;3.80;;;;;;;;;;4968922;28;20055;-68
2022/07/10 14:17:39;;;;;;;6.07;3.35;;;;;;;;;;4954842;28;20422;-66
2022/07/10 14:20:06;;;;;;;5.05;3.67;;;;;;;;;;4960908;28;20039;-69
2022/07/10 14:22:32;;;;;;;6.00;4.00;;;;;;;;;;4952866;29;20026;-70
2022/07/10 14:24:58;;;;;;;6.32;3.60;;;;;;;;;;4951588;29;20111;-67
2022/07/10 14:27:24;;;;;;;7.40;3.72;;;;;;;;;;4956744;28;20030;-65
2022/07/10 14:29:50;;;;;;;3.88;3.15;;;;;;;;;;4993011;28;20042;-66
2022/07/10 14:32:16;;;;;;;4.13;3.70;;;;;;;;;;4991617;28;20026;-68
2022/07/10 14:34:42;;;;;;;4.35;3.67;;;;;;;;;;4992890;28;20049;-66
2022/07/10 14:37:08;;;;;;;7.60;3.50;;;;;;;;;;4959471;28;20023;-67
2022/07/10 14:39:34;;;;;;;3.60;3.25;;;;;;;;;;4954365;29;20118;-69
2022/07/10 14:42:01;;;;;;;4.32;3.60;;;;;;;;;;4954082;29;20475;-67
2022/07/10 14:44:27;;;;;;;6.20;3.30;;;;;;;;;;4954234;28;20044;-68
2022/07/10 14:46:52;;;;;;;6.28;3.40;;;;;;;;;;4953491;29;20027;-68
2022/07/10 14:49:21;;;;;;;3.63;3.17;;;;;;;;;;4954002;28;20050;-67
2022/07/10 14:51:47;;;;;;;3.80;3.25;;;;;;;;;;4954184;28;20027;-66
2022/07/10 14:54:13;;;;;;;6.03;3.75;;;;;;;;;;4954308;28;20046;-67
2022/07/10 14:56:38;;;;;;;4.80;3.15;;;;;;;;;;4954036;28;20035;-68
2022/07/10 14:59:04;;;;;;;3.95;3.55;;;;;;;;;;4952706;28;20098;-67